Time;durP1;ratioP1;P1;durP2;ratioP2;P2;SDS_P1;SDS_P2;PMS_P1;PMS_P2;Temp;Humidity;BMP_temperature;BMP_pressure;BME280_temperature;BME280_humidity;BME280_pressure;Samples;Min_cycle;Max_cycle;Signal;HPM_P1;HPM_P2
2024/01/10 00:00:12;;;;;;;4.22;1.30;;;;;;;;;;4975888;28;95224;-78
2024/01/10 00:02:39;;;;;;;2.42;1.05;;;;;;;;;;4980781;28;92209;-79
2024/01/10 00:05:06;;;;;;;4.22;1.60;;;;;;;;;;4982517;28;92476;-79
2024/01/10 00:07:32;;;;;;;3.25;1.33;;;;;;;;;;4981925;28;95417;-80
2024/01/10 00:10:01;;;;;;;3.00;1.20;;;;;;;;;;4982852;28;92082;-80
2024/01/10 00:12:33;;;;;;;3.47;1.20;;;;;;;;;;4980982;28;92416;-81
2024/01/10 00:14:59;;;;;;;3.33;1.30;;;;;;;;;;4983741;28;93094;-78
2024/01/10 00:17:26;;;;;;;3.78;1.10;;;;;;;;;;4981239;28;93485;-79
2024/01/10 00:19:52;;;;;;;3.50;1.13;;;;;;;;;;4995847;27;92637;-79
2024/01/10 00:22:19;;;;;;;5.38;1.20;;;;;;;;;;5000695;27;92160;-78
2024/01/10 00:24:45;;;;;;;4.05;1.20;;;;;;;;;;4999447;27;94857;-79
2024/01/10 00:27:12;;;;;;;5.03;1.40;;;;;;;;;;4991586;28;92844;-78
2024/01/10 00:29:38;;;;;;;4.85;1.33;;;;;;;;;;4981791;28;92575;-80
2024/01/10 00:32:05;;;;;;;3.78;1.38;;;;;;;;;;4981143;28;92245;-80
2024/01/10 00:34:32;;;;;;;4.28;1.50;;;;;;;;;;4977746;28;93060;-79
2024/01/10 00:36:58;;;;;;;5.75;1.42;;;;;;;;;;4947436;28;92461;-79
2024/01/10 00:39:25;;;;;;;3.58;1.48;;;;;;;;;;4975056;28;92626;-79
2024/01/10 00:41:52;;;;;;;3.45;1.23;;;;;;;;;;4982299;28;91750;-78
2024/01/10 00:44:18;;;;;;;3.08;1.60;;;;;;;;;;4980632;28;92383;-79
2024/01/10 00:46:45;;;;;;;4.50;1.60;;;;;;;;;;4980241;28;93109;-81
2024/01/10 00:49:12;;;;;;;4.22;1.50;;;;;;;;;;4980544;28;94576;-80
2024/01/10 00:51:38;;;;;;;5.43;1.50;;;;;;;;;;4980039;28;96907;-79
2024/01/10 00:54:05;;;;;;;2.95;1.50;;;;;;;;;;4976648;28;94013;-79
2024/01/10 00:56:31;;;;;;;3.45;1.50;;;;;;;;;;4995405;28;92272;-78
2024/01/10 00:58:58;;;;;;;4.18;1.48;;;;;;;;;;4984576;28;92774;-80
2024/01/10 01:01:24;;;;;;;3.28;1.42;;;;;;;;;;4979581;28;92440;-79
2024/01/10 01:03:51;;;;;;;4.00;1.60;;;;;;;;;;4979476;28;94603;-80
2024/01/10 01:06:18;;;;;;;4.22;1.63;;;;;;;;;;4981513;28;92164;-78
2024/01/10 01:08:44;;;;;;;4.68;1.50;;;;;;;;;;4981488;28;92430;-79
2024/01/10 01:11:11;;;;;;;3.58;1.50;;;;;;;;;;4980187;28;92582;-79
2024/01/10 01:13:38;;;;;;;3.67;1.50;;;;;;;;;;4978158;28;96663;-79
2024/01/10 01:16:05;;;;;;;3.63;1.55;;;;;;;;;;4981543;28;92179;-80
2024/01/10 01:18:31;;;;;;;3.65;1.60;;;;;;;;;;4986543;27;93723;-79
2024/01/10 01:20:58;;;;;;;5.00;1.70;;;;;;;;;;4983290;28;92608;-79
2024/01/10 01:23:25;;;;;;;4.75;1.60;;;;;;;;;;4992050;27;91973;-79
2024/01/10 01:26:04;;;;;;;4.30;1.65;;;;;;;;;;4979393;28;95359;-79
2024/01/10 01:28:31;;;;;;;4.63;1.80;;;;;;;;;;4980476;28;92448;-79
2024/01/10 01:30:58;;;;;;;4.53;1.70;;;;;;;;;;4980821;28;92902;-79
2024/01/10 01:33:25;;;;;;;4.00;1.60;;;;;;;;;;4980215;28;92539;-79
2024/01/10 01:35:54;;;;;;;4.13;1.65;;;;;;;;;;4968588;28;92148;-79
2024/01/10 01:38:20;;;;;;;4.13;1.60;;;;;;;;;;4975195;28;94630;-79
2024/01/10 01:40:47;;;;;;;3.45;1.70;;;;;;;;;;4983367;28;93550;-80
2024/01/10 01:43:21;;;;;;;5.50;1.75;;;;;;;;;;4980862;28;92925;-80
2024/01/10 01:45:50;;;;;;;4.88;1.90;;;;;;;;;;4979459;28;95670;-79
2024/01/10 01:48:17;;;;;;;4.10;1.70;;;;;;;;;;4981755;28;92245;-80
2024/01/10 01:50:45;;;;;;;4.28;1.70;;;;;;;;;;4982698;28;92338;-80
2024/01/10 01:53:15;;;;;;;6.95;1.70;;;;;;;;;;4983961;28;93080;-81
2024/01/10 01:55:43;;;;;;;17.27;2.40;;;;;;;;;;4984205;28;91519;-80
2024/01/10 01:58:10;;;;;;;4.80;1.73;;;;;;;;;;4982361;28;92345;-80
2024/01/10 02:00:37;;;;;;;10.82;2.00;;;;;;;;;;4963320;28;92563;-79
2024/01/10 02:03:05;;;;;;;7.35;2.20;;;;;;;;;;4967029;28;94453;-82
2024/01/10 02:05:31;;;;;;;6.22;2.10;;;;;;;;;;4971891;28;94834;-81
2024/01/10 02:07:58;;;;;;;6.35;1.92;;;;;;;;;;4984145;28;92046;-80
2024/01/10 02:10:25;;;;;;;5.72;1.80;;;;;;;;;;4982684;28;94949;-81
2024/01/10 02:12:51;;;;;;;4.88;1.80;;;;;;;;;;4984016;28;92820;-80
2024/01/10 02:15:18;;;;;;;4.53;1.65;;;;;;;;;;4983705;28;92261;-81
2024/01/10 02:17:44;;;;;;;5.80;1.90;;;;;;;;;;4984104;28;92483;-81
2024/01/10 02:20:13;;;;;;;5.25;1.90;;;;;;;;;;4988224;27;91923;-80
2024/01/10 02:22:39;;;;;;;4.35;1.83;;;;;;;;;;4984451;28;92151;-80
2024/01/10 02:25:09;;;;;;;4.97;1.83;;;;;;;;;;4987176;28;92263;-82
2024/01/10 02:27:36;;;;;;;4.80;1.80;;;;;;;;;;4982405;28;94726;-81
2024/01/10 02:30:03;;;;;;;7.07;2.15;;;;;;;;;;4982828;28;94860;-80
2024/01/10 02:32:30;;;;;;;7.10;1.90;;;;;;;;;;4981456;28;92790;-79
2024/01/10 02:34:57;;;;;;;4.95;2.00;;;;;;;;;;4981898;28;92194;-78
2024/01/10 02:37:24;;;;;;;4.53;1.70;;;;;;;;;;4970266;28;94251;-81
2024/01/10 02:39:51;;;;;;;4.75;1.90;;;;;;;;;;4983364;28;92227;-80
2024/01/10 02:42:17;;;;;;;4.47;1.92;;;;;;;;;;4983496;28;91998;-81
2024/01/10 02:44:44;;;;;;;6.22;2.00;;;;;;;;;;4983306;28;95128;-80
2024/01/10 02:47:11;;;;;;;5.85;2.20;;;;;;;;;;4985996;28;92763;-80
2024/01/10 02:49:38;;;;;;;4.45;1.70;;;;;;;;;;4982218;28;92343;-81
2024/01/10 02:52:05;;;;;;;4.75;1.90;;;;;;;;;;4981472;28;95097;-80
2024/01/10 02:54:32;;;;;;;3.58;1.70;;;;;;;;;;4960897;28;92488;-82
2024/01/10 02:56:58;;;;;;;3.53;1.80;;;;;;;;;;4979079;28;95154;-80
2024/01/10 02:59:25;;;;;;;5.53;2.00;;;;;;;;;;4982530;28;93014;-79
2024/01/10 03:01:51;;;;;;;3.95;1.70;;;;;;;;;;4983236;28;92046;-80
2024/01/10 03:04:18;;;;;;;5.78;2.00;;;;;;;;;;4982957;28;92711;-81
2024/01/10 03:06:45;;;;;;;4.18;1.80;;;;;;;;;;4981008;28;95124;-79
2024/01/10 03:09:11;;;;;;;4.80;1.77;;;;;;;;;;4985306;28;91556;-80
2024/01/10 03:11:38;;;;;;;5.00;2.00;;;;;;;;;;4982627;28;92575;-80
2024/01/10 03:14:08;;;;;;;5.05;1.92;;;;;;;;;;4964928;28;92547;-80
2024/01/10 03:16:36;;;;;;;3.67;1.75;;;;;;;;;;4980304;28;94584;-79
2024/01/10 03:19:03;;;;;;;4.05;1.65;;;;;;;;;;4990143;28;92939;-79
2024/01/10 03:21:29;;;;;;;3.67;1.73;;;;;;;;;;5002671;28;92358;-81
2024/01/10 03:23:59;;;;;;;5.03;1.90;;;;;;;;;;5002564;27;93348;-80
2024/01/10 03:26:26;;;;;;;4.05;1.80;;;;;;;;;;4987417;28;92225;-80
2024/01/10 03:28:52;;;;;;;4.40;1.80;;;;;;;;;;4983586;28;92170;-81
2024/01/10 03:31:19;;;;;;;3.78;1.75;;;;;;;;;;4962483;28;96232;-79
2024/01/10 03:33:46;;;;;;;4.40;1.88;;;;;;;;;;4981507;28;91574;-80
2024/01/10 03:36:16;;;;;;;4.75;1.70;;;;;;;;;;4971355;28;93979;-80
2024/01/10 03:38:43;;;;;;;5.65;1.90;;;;;;;;;;4979555;28;97802;-80
2024/01/10 03:41:17;;;;;;;5.55;1.90;;;;;;;;;;4978568;28;95417;-80
2024/01/10 03:43:44;;;;;;;5.13;1.80;;;;;;;;;;4982033;28;94698;-79
2024/01/10 03:46:10;;;;;;;4.15;1.98;;;;;;;;;;4980317;28;93287;-80
2024/01/10 03:48:40;;;;;;;4.07;1.80;;;;;;;;;;4979365;28;92102;-79
2024/01/10 03:51:07;;;;;;;4.35;1.80;;;;;;;;;;4984168;28;92502;-79
2024/01/10 03:53:34;;;;;;;8.27;2.20;;;;;;;;;;4980748;28;92362;-80
2024/01/10 03:56:03;;;;;;;6.10;1.90;;;;;;;;;;4980792;28;95112;-79
2024/01/10 03:58:30;;;;;;;5.32;2.10;;;;;;;;;;4982657;28;92839;-79
2024/01/10 04:00:56;;;;;;;4.85;1.98;;;;;;;;;;4981302;28;92497;-77
2024/01/10 04:03:23;;;;;;;4.78;2.05;;;;;;;;;;4981472;28;93735;-79
2024/01/10 04:05:50;;;;;;;4.85;1.70;;;;;;;;;;4979160;28;98016;-78
2024/01/10 04:08:16;;;;;;;10.82;2.10;;;;;;;;;;4980020;28;92215;-80
2024/01/10 04:10:44;;;;;;;7.18;2.00;;;;;;;;;;4979263;28;92411;-80
2024/01/10 04:13:11;;;;;;;8.45;1.88;;;;;;;;;;4982954;28;92673;-78
2024/01/10 04:15:37;;;;;;;7.30;2.05;;;;;;;;;;4980315;28;95406;-79
2024/01/10 04:18:04;;;;;;;5.60;1.85;;;;;;;;;;4981395;28;92812;-79
2024/01/10 04:20:31;;;;;;;5.18;1.92;;;;;;;;;;5000394;27;92582;-79
2024/01/10 04:22:58;;;;;;;6.15;2.22;;;;;;;;;;5001211;28;92377;-79
2024/01/10 04:25:24;;;;;;;6.85;2.20;;;;;;;;;;4999369;27;92365;-80
2024/01/10 04:27:51;;;;;;;5.40;2.03;;;;;;;;;;4981548;28;92498;-80
2024/01/10 04:30:17;;;;;;;5.10;2.00;;;;;;;;;;4979040;28;94645;-81
2024/01/10 04:32:44;;;;;;;5.57;2.13;;;;;;;;;;4980249;28;93105;-80
2024/01/10 04:35:10;;;;;;;5.40;2.00;;;;;;;;;;4975367;28;92540;-80
2024/01/10 04:37:37;;;;;;;5.70;2.00;;;;;;;;;;4961899;28;92651;-80
2024/01/10 04:40:04;;;;;;;7.72;2.08;;;;;;;;;;4969183;28;92032;-80
2024/01/10 04:42:34;;;;;;;6.85;2.13;;;;;;;;;;4980697;28;93773;-80
2024/01/10 04:45:00;;;;;;;8.13;2.15;;;;;;;;;;4980694;28;92760;-79
2024/01/10 04:47:27;;;;;;;4.95;1.80;;;;;;;;;;4982541;28;91396;-80
2024/01/10 04:49:53;;;;;;;7.05;2.25;;;;;;;;;;4981921;28;92406;-80
2024/01/10 04:52:20;;;;;;;6.63;2.00;;;;;;;;;;4980621;28;92860;-80
2024/01/10 04:54:47;;;;;;;6.30;2.03;;;;;;;;;;4974839;28;95112;-78
2024/01/10 04:57:13;;;;;;;5.05;1.80;;;;;;;;;;4973767;28;94663;-79
2024/01/10 04:59:40;;;;;;;7.20;2.03;;;;;;;;;;4981445;28;92163;-79
2024/01/10 05:02:06;;;;;;;5.53;2.10;;;;;;;;;;4981839;28;93670;-79
2024/01/10 05:04:33;;;;;;;5.40;2.10;;;;;;;;;;4980281;28;92603;-80
2024/01/10 05:07:00;;;;;;;5.22;1.90;;;;;;;;;;4980405;28;92311;-80
2024/01/10 05:09:26;;;;;;;12.73;2.40;;;;;;;;;;4980948;28;92423;-80
2024/01/10 05:11:53;;;;;;;5.15;1.85;;;;;;;;;;4980226;28;92087;-80
2024/01/10 05:14:19;;;;;;;5.63;1.88;;;;;;;;;;4980268;28;92390;-79
2024/01/10 05:16:47;;;;;;;12.07;2.20;;;;;;;;;;4983482;28;100130;-80
2024/01/10 05:19:14;;;;;;;5.55;1.98;;;;;;;;;;4989005;28;95069;-80
2024/01/10 05:21:41;;;;;;;9.10;2.28;;;;;;;;;;4998079;27;94743;-81
2024/01/10 05:24:07;;;;;;;6.25;2.20;;;;;;;;;;4980172;28;92656;-80
2024/01/10 05:26:34;;;;;;;5.10;2.10;;;;;;;;;;4980027;28;92440;-80
2024/01/10 05:29:01;;;;;;;6.97;2.08;;;;;;;;;;4980912;28;92436;-79
2024/01/10 05:31:28;;;;;;;5.68;2.15;;;;;;;;;;4980905;28;93253;-81
2024/01/10 05:33:54;;;;;;;4.85;2.00;;;;;;;;;;4979518;28;92554;-81
2024/01/10 05:36:22;;;;;;;6.45;2.10;;;;;;;;;;4971080;28;91799;-80
2024/01/10 05:38:49;;;;;;;5.40;2.10;;;;;;;;;;4982758;28;93056;-80
2024/01/10 05:41:15;;;;;;;5.93;2.13;;;;;;;;;;4962979;28;94506;-80
2024/01/10 05:43:43;;;;;;;5.82;2.00;;;;;;;;;;4978020;28;95286;-80
2024/01/10 05:46:10;;;;;;;5.28;2.13;;;;;;;;;;4981010;28;92082;-80
2024/01/10 05:48:37;;;;;;;4.53;1.90;;;;;;;;;;4962942;28;94820;-80
2024/01/10 05:51:04;;;;;;;4.40;1.88;;;;;;;;;;4978884;28;95079;-80
2024/01/10 05:53:31;;;;;;;5.03;1.88;;;;;;;;;;4979726;28;92067;-81
2024/01/10 05:55:57;;;;;;;5.65;2.33;;;;;;;;;;4978736;28;94704;-80
2024/01/10 05:58:24;;;;;;;5.63;2.22;;;;;;;;;;4979764;28;93297;-81
2024/01/10 06:00:51;;;;;;;5.28;2.05;;;;;;;;;;4983259;28;91565;-79
2024/01/10 06:03:18;;;;;;;4.47;1.98;;;;;;;;;;4978874;28;95147;-80
2024/01/10 06:05:45;;;;;;;6.60;2.20;;;;;;;;;;4978928;28;92135;-80
2024/01/10 06:08:13;;;;;;;5.20;2.10;;;;;;;;;;4979334;28;94546;-79
2024/01/10 06:10:40;;;;;;;6.25;2.00;;;;;;;;;;4978683;28;92179;-79
2024/01/10 06:13:07;;;;;;;7.28;2.10;;;;;;;;;;4963034;28;92215;-79
2024/01/10 06:15:33;;;;;;;4.93;2.03;;;;;;;;;;4980133;28;92416;-80
2024/01/10 06:18:00;;;;;;;5.80;2.10;;;;;;;;;;4978392;28;95086;-80
2024/01/10 06:20:27;;;;;;;5.35;2.20;;;;;;;;;;4994912;28;92394;-79
2024/01/10 06:22:54;;;;;;;5.97;2.05;;;;;;;;;;4982512;28;92396;-80
2024/01/10 06:25:21;;;;;;;6.75;2.20;;;;;;;;;;4981422;28;91665;-80
2024/01/10 06:27:48;;;;;;;5.22;2.17;;;;;;;;;;4980665;28;92164;-80
2024/01/10 06:30:14;;;;;;;6.15;2.10;;;;;;;;;;4979240;28;94641;-79
2024/01/10 06:32:41;;;;;;;5.30;2.20;;;;;;;;;;4975946;28;94689;-79
2024/01/10 06:35:09;;;;;;;5.18;2.13;;;;;;;;;;4975854;28;95118;-80
2024/01/10 06:37:37;;;;;;;5.82;2.00;;;;;;;;;;4983712;28;93036;-78
2024/01/10 06:40:05;;;;;;;4.63;2.00;;;;;;;;;;4990218;28;92379;-79
2024/01/10 06:42:32;;;;;;;4.60;1.80;;;;;;;;;;4982059;28;94921;-80
2024/01/10 06:44:58;;;;;;;4.78;2.00;;;;;;;;;;4986491;28;92745;-80
2024/01/10 06:47:25;;;;;;;5.20;2.10;;;;;;;;;;4981848;28;92942;-80
2024/01/10 06:49:52;;;;;;;4.18;1.88;;;;;;;;;;4983050;28;94610;-80
2024/01/10 06:52:18;;;;;;;7.75;2.00;;;;;;;;;;4983099;28;92086;-79
2024/01/10 06:54:45;;;;;;;4.75;2.00;;;;;;;;;;4984292;27;92366;-79
2024/01/10 06:57:11;;;;;;;9.32;2.60;;;;;;;;;;5000194;28;97477;-80
2024/01/10 06:59:38;;;;;;;5.00;1.85;;;;;;;;;;5003225;27;92420;-80
2024/01/10 07:02:05;;;;;;;7.38;2.30;;;;;;;;;;4983082;28;95357;-78
2024/01/10 07:04:32;;;;;;;7.20;2.22;;;;;;;;;;4982795;28;92127;-77
2024/01/10 07:06:58;;;;;;;6.75;2.30;;;;;;;;;;4968382;28;92095;-77
2024/01/10 07:09:25;;;;;;;6.68;1.90;;;;;;;;;;4982463;28;92265;-78
2024/01/10 07:11:52;;;;;;;6.18;2.10;;;;;;;;;;4982939;28;92600;-78
2024/01/10 07:14:19;;;;;;;9.15;2.25;;;;;;;;;;4980907;28;95225;-77
2024/01/10 07:16:47;;;;;;;6.65;2.33;;;;;;;;;;4981816;28;93073;-77
2024/01/10 07:19:14;;;;;;;9.07;2.30;;;;;;;;;;4991927;27;92224;-77
2024/01/10 07:21:41;;;;;;;5.38;1.92;;;;;;;;;;5001120;27;94872;-78
2024/01/10 07:24:11;;;;;;;7.15;2.10;;;;;;;;;;5001200;28;95372;-78
2024/01/10 07:26:38;;;;;;;8.63;2.40;;;;;;;;;;5005401;27;92578;-78
2024/01/10 07:29:08;;;;;;;5.82;2.00;;;;;;;;;;4993795;28;92542;-78
2024/01/10 07:31:35;;;;;;;5.38;2.00;;;;;;;;;;4982196;28;92337;-77
2024/01/10 07:34:04;;;;;;;7.20;2.35;;;;;;;;;;4981733;28;92851;-78
2024/01/10 07:36:33;;;;;;;4.68;1.92;;;;;;;;;;4978423;28;94239;-77
2024/01/10 07:39:00;;;;;;;5.25;2.03;;;;;;;;;;4982552;28;91569;-78
2024/01/10 07:41:29;;;;;;;4.88;1.80;;;;;;;;;;4977534;28;92646;-76
2024/01/10 07:43:57;;;;;;;6.25;2.10;;;;;;;;;;4980454;28;94307;-78
2024/01/10 07:46:23;;;;;;;5.53;1.80;;;;;;;;;;4970142;28;94668;-78
2024/01/10 07:48:50;;;;;;;4.65;1.92;;;;;;;;;;4966606;28;97156;-79
2024/01/10 07:51:17;;;;;;;5.18;2.20;;;;;;;;;;4981785;28;92345;-78
2024/01/10 07:53:43;;;;;;;4.18;1.92;;;;;;;;;;4981434;28;93443;-77
2024/01/10 07:56:12;;;;;;;4.63;1.77;;;;;;;;;;4970381;28;95553;-77
2024/01/10 07:58:38;;;;;;;5.65;2.10;;;;;;;;;;4980211;28;92197;-78
2024/01/10 08:01:05;;;;;;;7.13;2.20;;;;;;;;;;4981458;28;92535;-78
2024/01/10 08:03:33;;;;;;;4.43;1.75;;;;;;;;;;4979776;28;94476;-76
2024/01/10 08:05:59;;;;;;;4.93;1.90;;;;;;;;;;4980966;28;92195;-76
2024/01/10 08:08:26;;;;;;;5.13;2.13;;;;;;;;;;4980057;28;93988;-77
2024/01/10 08:10:53;;;;;;;3.95;1.90;;;;;;;;;;4982248;28;95056;-78
2024/01/10 08:13:19;;;;;;;4.30;1.92;;;;;;;;;;4978739;28;96733;-77
2024/01/10 08:15:46;;;;;;;5.30;1.95;;;;;;;;;;4980795;28;94511;-79
2024/01/10 08:18:14;;;;;;;6.55;2.40;;;;;;;;;;4982196;28;92432;-78
2024/01/10 08:20:40;;;;;;;5.88;2.05;;;;;;;;;;4989234;28;92734;-78
2024/01/10 08:23:08;;;;;;;4.90;2.00;;;;;;;;;;4961098;28;92798;-79
2024/01/10 08:25:35;;;;;;;4.53;1.90;;;;;;;;;;4950062;28;92408;-79
2024/01/10 08:28:02;;;;;;;3.97;1.73;;;;;;;;;;4976030;28;92962;-78
2024/01/10 08:30:28;;;;;;;4.65;1.90;;;;;;;;;;4980165;28;92739;-75
2024/01/10 08:32:55;;;;;;;4.57;1.88;;;;;;;;;;4983888;28;92464;-77
2024/01/10 08:35:22;;;;;;;4.30;2.05;;;;;;;;;;4970081;28;95171;-76
2024/01/10 08:37:54;;;;;;;6.15;2.00;;;;;;;;;;4980662;28;92152;-77
2024/01/10 08:40:25;;;;;;;5.05;1.83;;;;;;;;;;4977387;28;92366;-76
2024/01/10 08:42:52;;;;;;;4.78;2.10;;;;;;;;;;4964470;28;93013;-76
2024/01/10 08:45:18;;;;;;;6.28;2.03;;;;;;;;;;4979066;28;92443;-75
2024/01/10 08:47:46;;;;;;;5.18;1.92;;;;;;;;;;4979302;28;98302;-76
2024/01/10 08:50:13;;;;;;;5.80;2.00;;;;;;;;;;4980478;28;93183;-77
2024/01/10 08:52:39;;;;;;;6.45;2.00;;;;;;;;;;4980207;28;91663;-78
2024/01/10 08:55:07;;;;;;;6.22;2.00;;;;;;;;;;4990041;28;92352;-78
2024/01/10 08:57:39;;;;;;;6.68;2.13;;;;;;;;;;4974466;28;92463;-77
2024/01/10 09:00:07;;;;;;;5.85;2.05;;;;;;;;;;4959935;28;94732;-77
2024/01/10 09:02:36;;;;;;;7.50;2.10;;;;;;;;;;4958614;28;92693;-76
2024/01/10 09:05:03;;;;;;;4.63;1.90;;;;;;;;;;4976087;28;92092;-79
2024/01/10 09:07:30;;;;;;;6.05;2.15;;;;;;;;;;4968930;28;95402;-79
2024/01/10 09:09:57;;;;;;;4.60;1.95;;;;;;;;;;4979197;28;94609;-79
2024/01/10 09:12:23;;;;;;;6.82;2.15;;;;;;;;;;4980326;28;92274;-80
2024/01/10 09:14:50;;;;;;;4.60;1.88;;;;;;;;;;4963805;28;92374;-78
2024/01/10 09:17:17;;;;;;;4.93;1.90;;;;;;;;;;4984448;28;92105;-79
2024/01/10 09:19:44;;;;;;;4.78;2.00;;;;;;;;;;4994188;27;92269;-78
2024/01/10 09:22:10;;;;;;;4.60;1.80;;;;;;;;;;4968812;28;95708;-81
2024/01/10 09:24:37;;;;;;;4.72;1.90;;;;;;;;;;4977930;28;95109;-80
2024/01/10 09:27:07;;;;;;;3.97;1.83;;;;;;;;;;4978299;28;97534;-79
2024/01/10 09:29:34;;;;;;;;;;;;;;;;;;4978389;28;93892;-79
2024/01/10 09:32:00;;;;;;;4.40;1.83;;;;;;;;;;4979632;28;96900;-80
2024/01/10 09:34:27;;;;;;;4.18;1.85;;;;;;;;;;4976959;28;92509;-79
2024/01/10 09:36:53;;;;;;;8.63;2.00;;;;;;;;;;4981710;28;93331;-79
2024/01/10 09:39:20;;;;;;;5.88;2.10;;;;;;;;;;4979078;28;92497;-78
2024/01/10 09:41:48;;;;;;;4.75;1.70;;;;;;;;;;4979349;28;91889;-79
2024/01/10 09:44:17;;;;;;;4.70;2.00;;;;;;;;;;4980087;28;92324;-80
2024/01/10 09:46:47;;;;;;;5.95;2.22;;;;;;;;;;4980199;28;97337;-79
2024/01/10 09:49:14;;;;;;;5.63;2.10;;;;;;;;;;4978796;28;97121;-79
2024/01/10 09:51:41;;;;;;;5.47;2.17;;;;;;;;;;4980539;28;92136;-79
2024/01/10 09:54:07;;;;;;;7.78;1.90;;;;;;;;;;4978865;28;94773;-81
2024/01/10 09:56:34;;;;;;;5.03;2.10;;;;;;;;;;4977632;28;93119;-80
2024/01/10 09:59:02;;;;;;;5.15;2.00;;;;;;;;;;4984810;28;92314;-79
2024/01/10 10:01:28;;;;;;;4.40;1.90;;;;;;;;;;4979506;28;94996;-79
2024/01/10 10:03:56;;;;;;;5.65;2.10;;;;;;;;;;4980789;28;92489;-79
2024/01/10 10:06:22;;;;;;;3.95;1.80;;;;;;;;;;4961226;28;95130;-79
2024/01/10 10:08:49;;;;;;;4.05;1.85;;;;;;;;;;4962933;28;95417;-80
2024/01/10 10:11:16;;;;;;;6.05;2.00;;;;;;;;;;4983042;28;92188;-80
2024/01/10 10:13:43;;;;;;;5.00;2.10;;;;;;;;;;4982388;28;94778;-81
2024/01/10 10:16:11;;;;;;;5.20;2.03;;;;;;;;;;4982488;28;93271;-80
2024/01/10 10:18:39;;;;;;;5.72;2.10;;;;;;;;;;4986279;28;92456;-80
2024/01/10 10:21:11;;;;;;;5.28;2.10;;;;;;;;;;4993795;28;92681;-79
2024/01/10 10:23:38;;;;;;;4.30;1.98;;;;;;;;;;4962604;28;92188;-81
2024/01/10 10:26:19;;;;;;;5.28;2.17;;;;;;;;;;4981292;28;92638;-79
2024/01/10 10:28:47;;;;;;;4.20;2.00;;;;;;;;;;4982414;28;97165;-80
2024/01/10 10:31:14;;;;;;;4.80;2.28;;;;;;;;;;4981613;28;91709;-80
2024/01/10 10:33:42;;;;;;;4.97;2.10;;;;;;;;;;4982781;28;92353;-81
2024/01/10 10:36:08;;;;;;;5.90;2.10;;;;;;;;;;4977276;28;92703;-80
2024/01/10 10:38:37;;;;;;;4.03;2.00;;;;;;;;;;4979698;28;95096;-80
2024/01/10 10:41:05;;;;;;;4.95;2.17;;;;;;;;;;4981981;28;95116;-80
2024/01/10 10:43:35;;;;;;;4.85;1.98;;;;;;;;;;4983788;28;92948;-80
2024/01/10 10:46:01;;;;;;;4.95;2.10;;;;;;;;;;4981233;28;95336;-79
2024/01/10 10:48:31;;;;;;;4.78;1.95;;;;;;;;;;4980659;28;94699;-80
2024/01/10 10:51:07;;;;;;;5.25;2.17;;;;;;;;;;4981482;28;92377;-79
2024/01/10 10:53:38;;;;;;;5.22;2.13;;;;;;;;;;4982112;28;92655;-81
2024/01/10 10:56:07;;;;;;;5.07;1.92;;;;;;;;;;4994594;28;91885;-80
2024/01/10 10:58:35;;;;;;;4.93;2.20;;;;;;;;;;5002019;27;92414;-80
2024/01/10 11:01:05;;;;;;;4.78;2.13;;;;;;;;;;4985858;28;92965;-80
2024/01/10 11:03:34;;;;;;;4.80;2.30;;;;;;;;;;4983768;28;95041;-82
2024/01/10 11:06:01;;;;;;;4.55;2.13;;;;;;;;;;4986950;28;92978;-81
2024/01/10 11:08:29;;;;;;;4.68;2.10;;;;;;;;;;4965290;28;95730;-81
2024/01/10 11:10:56;;;;;;;5.43;2.22;;;;;;;;;;4984558;28;92124;-83
2024/01/10 11:13:40;;;;;;;4.25;1.95;;;;;;;;;;4983879;28;92695;-82
2024/01/10 11:16:26;;;;;;;4.63;2.13;;;;;;;;;;4982243;28;93169;-82
2024/01/10 11:19:10;;;;;;;5.57;2.38;;;;;;;;;;4985838;28;92386;-80
2024/01/10 11:21:56;;;;;;;4.97;2.03;;;;;;;;;;4990356;28;91720;-80
2024/01/10 11:24:23;;;;;;;4.40;2.30;;;;;;;;;;4981786;28;92752;-81
2024/01/10 11:26:50;;;;;;;4.20;1.92;;;;;;;;;;4980227;28;92379;-81
2024/01/10 11:29:17;;;;;;;5.43;2.13;;;;;;;;;;4983078;28;94636;-82
2024/01/10 11:31:50;;;;;;;5.30;2.30;;;;;;;;;;4966258;28;92512;-81
2024/01/10 11:34:22;;;;;;;5.35;2.25;;;;;;;;;;4970910;28;92977;-81
2024/01/10 11:37:07;;;;;;;4.57;1.90;;;;;;;;;;4982913;28;92682;-82
2024/01/10 11:39:35;;;;;;;5.18;2.03;;;;;;;;;;4981218;28;92270;-83
2024/01/10 11:42:01;;;;;;;5.43;2.10;;;;;;;;;;4982673;28;93422;-82
2024/01/10 11:44:28;;;;;;;6.07;2.00;;;;;;;;;;4981834;28;93330;-81
2024/01/10 11:46:56;;;;;;;5.70;2.22;;;;;;;;;;4982303;28;91447;-81
2024/01/10 11:49:24;;;;;;;5.57;2.38;;;;;;;;;;4987060;28;92122;-81
2024/01/10 11:51:53;;;;;;;4.75;2.30;;;;;;;;;;4984027;28;92131;-80
2024/01/10 11:54:38;;;;;;;5.20;2.22;;;;;;;;;;4964090;28;95353;-81
2024/01/10 11:57:17;;;;;;;9.95;2.35;;;;;;;;;;4994272;28;92677;-81
2024/01/10 11:59:47;;;;;;;4.35;2.17;;;;;;;;;;4982820;28;91962;-81
2024/01/10 12:02:14;;;;;;;5.68;2.40;;;;;;;;;;4983006;28;95184;-84
2024/01/10 12:04:44;;;;;;;4.60;2.25;;;;;;;;;;4981905;28;93021;-82
2024/01/10 12:07:15;;;;;;;5.10;2.10;;;;;;;;;;4987265;28;92356;-82
2024/01/10 12:09:42;;;;;;;5.72;2.30;;;;;;;;;;4977383;28;95270;-81
2024/01/10 12:12:12;;;;;;;5.07;2.00;;;;;;;;;;4987589;28;92289;-82
2024/01/10 12:14:39;;;;;;;5.50;2.40;;;;;;;;;;4982322;28;92374;-81
2024/01/10 12:17:06;;;;;;;;;;;;;;;;;;4982375;28;92675;-83
2024/01/10 12:19:33;;;;;;;5.82;2.08;;;;;;;;;;4994692;27;94633;-82
2024/01/10 12:22:01;;;;;;;5.13;2.30;;;;;;;;;;4983577;28;97228;-81
2024/01/10 12:24:31;;;;;;;5.72;2.30;;;;;;;;;;4979694;28;94594;-79
2024/01/10 12:26:58;;;;;;;5.00;2.22;;;;;;;;;;4982898;28;92066;-81
2024/01/10 12:29:25;;;;;;;4.40;2.05;;;;;;;;;;4982667;28;92760;-79
2024/01/10 12:31:53;;;;;;;5.18;2.25;;;;;;;;;;4982007;28;92709;-78
2024/01/10 12:34:21;;;;;;;5.25;2.28;;;;;;;;;;4984011;28;92254;-80
2024/01/10 12:36:49;;;;;;;6.50;2.20;;;;;;;;;;4963752;28;91938;-80
2024/01/10 12:39:16;;;;;;;5.25;2.30;;;;;;;;;;4978430;28;92253;-79
2024/01/10 12:41:44;;;;;;;4.82;2.15;;;;;;;;;;4981370;28;94873;-79
2024/01/10 12:44:11;;;;;;;5.18;2.28;;;;;;;;;;4977693;28;97415;-80
2024/01/10 12:46:49;;;;;;;5.20;2.20;;;;;;;;;;4982475;28;92096;-82
2024/01/10 12:49:16;;;;;;;6.88;2.30;;;;;;;;;;4982173;28;92521;-82
2024/01/10 12:51:44;;;;;;;5.53;2.22;;;;;;;;;;4982850;28;93014;-82
2024/01/10 12:54:10;;;;;;;5.25;2.10;;;;;;;;;;4964968;28;92222;-81
2024/01/10 12:56:37;;;;;;;4.95;2.25;;;;;;;;;;5002593;27;92660;-83
2024/01/10 12:59:04;;;;;;;5.28;2.30;;;;;;;;;;4965455;28;92192;-82
2024/01/10 13:01:30;;;;;;;4.22;2.00;;;;;;;;;;4981576;28;91768;-82
2024/01/10 13:03:58;;;;;;;5.32;2.30;;;;;;;;;;4981300;28;92185;-82
2024/01/10 13:06:25;;;;;;;4.43;1.98;;;;;;;;;;4981169;28;92852;-83
2024/01/10 13:08:52;;;;;;;4.80;2.28;;;;;;;;;;4979611;28;94674;-80
2024/01/10 13:11:20;;;;;;;5.55;2.47;;;;;;;;;;4981523;28;93068;-81
2024/01/10 13:13:47;;;;;;;4.60;2.22;;;;;;;;;;4982118;28;92249;-82
2024/01/10 13:16:13;;;;;;;4.95;2.30;;;;;;;;;;4981021;28;92338;-80
2024/01/10 13:18:41;;;;;;;5.25;2.30;;;;;;;;;;4989026;27;92974;-79
2024/01/10 13:21:08;;;;;;;5.32;2.38;;;;;;;;;;4986854;28;96039;-82
2024/01/10 13:23:36;;;;;;;6.15;2.35;;;;;;;;;;4982474;28;92729;-82
2024/01/10 13:26:03;;;;;;;6.25;2.40;;;;;;;;;;4963908;28;91435;-82
2024/01/10 13:28:30;;;;;;;4.72;2.30;;;;;;;;;;4960935;28;93396;-81
2024/01/10 13:30:57;;;;;;;5.45;2.28;;;;;;;;;;4962397;28;92689;-81
2024/01/10 13:33:25;;;;;;;4.57;1.98;;;;;;;;;;4943154;28;94710;-81
2024/01/10 13:35:52;;;;;;;5.15;2.17;;;;;;;;;;4966773;28;96280;-82
2024/01/10 13:38:20;;;;;;;5.05;2.30;;;;;;;;;;4961272;28;92915;-82
2024/01/10 13:40:47;;;;;;;5.95;2.45;;;;;;;;;;4961803;28;92348;-82
2024/01/10 13:43:14;;;;;;;5.72;2.15;;;;;;;;;;4982268;28;95025;-82
2024/01/10 13:45:42;;;;;;;5.20;2.28;;;;;;;;;;4988760;28;92435;-83
2024/01/10 13:48:12;;;;;;;5.68;2.40;;;;;;;;;;4970515;28;94906;-83
2024/01/10 13:50:39;;;;;;;5.15;2.30;;;;;;;;;;4986118;28;91674;-82
2024/01/10 13:53:06;;;;;;;;;;;;;;;;;;4989195;28;92085;-82
2024/01/10 13:55:34;;;;;;;5.25;2.45;;;;;;;;;;4996444;28;92809;-83
2024/01/10 13:58:01;;;;;;;4.90;2.20;;;;;;;;;;5006265;27;95216;-83
2024/01/10 14:00:28;;;;;;;6.40;2.30;;;;;;;;;;5011201;27;92120;-85
2024/01/10 14:02:58;;;;;;;;;;;;;;;;;;4998449;28;93077;-82
2024/01/10 14:05:27;;;;;;;5.57;2.30;;;;;;;;;;4989413;28;93007;-82
2024/01/10 14:07:54;;;;;;;5.03;2.30;;;;;;;;;;4986743;28;94013;-84
2024/01/10 14:10:21;;;;;;;7.25;2.40;;;;;;;;;;4979978;28;95337;-80
2024/01/10 14:12:48;;;;;;;5.22;2.42;;;;;;;;;;4986579;28;92430;-79
2024/01/10 14:15:14;;;;;;;5.88;2.25;;;;;;;;;;4987742;28;92532;-81
2024/01/10 14:17:41;;;;;;;6.60;2.40;;;;;;;;;;4981939;28;92398;-80
2024/01/10 14:20:08;;;;;;;;;;;;;;;;;;4969507;28;92564;-83
2024/01/10 14:22:36;;;;;;;6.03;2.60;;;;;;;;;;4972428;28;94806;-83
2024/01/10 14:25:05;;;;;;;5.88;2.72;;;;;;;;;;4987458;28;92242;-84
2024/01/10 14:27:32;;;;;;;6.38;2.97;;;;;;;;;;4987093;28;94788;-82
2024/01/10 14:29:59;;;;;;;6.25;2.88;;;;;;;;;;4986405;28;95107;-83
2024/01/10 14:32:26;;;;;;;7.15;3.00;;;;;;;;;;4985801;28;92177;-83
2024/01/10 14:34:53;;;;;;;6.25;2.88;;;;;;;;;;4985355;28;92273;-83
2024/01/10 14:37:21;;;;;;;6.32;2.67;;;;;;;;;;4968328;28;95956;-80
2024/01/10 14:39:47;;;;;;;8.75;3.00;;;;;;;;;;4975893;28;91296;-80
2024/01/10 14:42:14;;;;;;;7.72;2.92;;;;;;;;;;4988079;28;92422;-81
2024/01/10 14:44:41;;;;;;;6.68;3.00;;;;;;;;;;4988790;28;92726;-80